createdAt,value
2019-03-05T00:01:09.381Z,6.30
2019-03-05T00:03:39.731Z,6.21
2019-03-05T00:06:10.335Z,6.12
2019-03-05T00:08:40.794Z,5.86
2019-03-05T00:11:11.108Z,6.04
2019-03-05T00:13:41.618Z,5.93
2019-03-05T00:16:11.833Z,5.87
2019-03-05T00:18:42.017Z,5.75
2019-03-05T00:21:12.042Z,5.67
2019-03-05T00:23:50.309Z,5.67
2019-03-05T00:26:23.568Z,5.52
2019-03-05T00:29:38.800Z,5.46
2019-03-05T00:32:09.357Z,5.49
2019-03-05T00:35:11.400Z,5.53
2019-03-05T00:38:06.469Z,5.48
2019-03-05T00:41:00.799Z,5.54
2019-03-05T00:43:55.983Z,5.51
2019-03-05T00:46:52.434Z,5.59
2019-03-05T00:49:42.469Z,5.52
2019-03-05T00:52:36.054Z,5.57
2019-03-05T00:55:43.124Z,5.48
2019-03-05T00:58:46.039Z,5.30
2019-03-05T01:01:37.923Z,5.15
2019-03-05T01:04:45.073Z,5.34
2019-03-05T01:07:15.259Z,5.41
2019-03-05T01:09:45.557Z,5.48
2019-03-05T01:12:16.502Z,5.50
2019-03-05T01:14:46.675Z,5.43
2019-03-05T01:17:17.187Z,5.32
2019-03-05T01:19:47.480Z,5.29
2019-03-05T01:22:18.025Z,5.29
2019-03-05T01:24:48.718Z,5.31
2019-03-05T01:27:19.120Z,5.37
2019-03-05T01:29:49.473Z,5.39
2019-03-05T01:32:35.152Z,5.33
2019-03-05T01:35:24.926Z,5.30
2019-03-05T01:37:55.182Z,5.33
2019-03-05T01:40:34.715Z,5.24
2019-03-05T01:43:04.917Z,5.35
2019-03-05T01:45:35.284Z,5.29
2019-03-05T01:48:05.898Z,5.23
2019-03-05T01:50:36.249Z,5.12
2019-03-05T01:53:06.576Z,5.14
2019-03-05T01:55:36.875Z,5.05
2019-03-05T01:58:07.141Z,5.12
2019-03-05T02:00:38.631Z,5.10
2019-03-05T02:03:09.214Z,5.13
2019-03-05T02:05:39.528Z,5.08
2019-03-05T02:08:09.934Z,5.11
2019-03-05T02:10:40.599Z,5.33
2019-03-05T02:13:10.923Z,5.24
2019-03-05T02:15:41.189Z,5.28
2019-03-05T02:18:12.889Z,5.07
2019-03-05T02:20:43.328Z,5.09
2019-03-05T02:23:21.190Z,4.96
2019-03-05T02:26:29.628Z,4.79
2019-03-05T02:29:34.156Z,4.92
2019-03-05T02:32:47.388Z,4.87
2019-03-05T02:36:00.217Z,4.93
2019-03-05T02:39:07.745Z,4.91
2019-03-05T02:42:03.106Z,5.08
2019-03-05T02:44:58.932Z,4.96
2019-03-05T02:48:04.111Z,5.01
2019-03-05T02:51:01.916Z,4.91
2019-03-05T02:53:44.743Z,5.02
2019-03-05T02:56:38.120Z,5.01
2019-03-05T02:59:06.077Z,5.00
2019-03-05T03:01:51.965Z,4.86
2019-03-05T03:04:24.040Z,4.96
2019-03-05T03:06:54.402Z,5.04
2019-03-05T03:10:08.312Z,4.97
2019-03-05T03:12:38.989Z,4.95
2019-03-05T03:15:12.495Z,4.91
2019-03-05T03:17:42.939Z,5.04
2019-03-05T03:20:15.020Z,5.08
2019-03-05T03:22:45.480Z,5.04
2019-03-05T03:25:23.647Z,4.98
2019-03-05T03:27:53.955Z,5.12
2019-03-05T03:30:25.331Z,5.13
2019-03-05T03:32:55.746Z,5.10
2019-03-05T03:35:26.224Z,5.09
2019-03-05T03:37:56.742Z,5.06
2019-03-05T03:40:27.061Z,5.00
2019-03-05T03:42:57.542Z,5.11
2019-03-05T03:45:28.476Z,5.18
2019-03-05T03:47:58.947Z,5.12
2019-03-05T03:50:28.938Z,5.10
2019-03-05T03:52:59.403Z,4.94
2019-03-05T03:55:30.024Z,4.78
2019-03-05T03:58:00.541Z,4.73
2019-03-05T04:00:30.803Z,4.71
2019-03-05T04:03:01.122Z,4.57
2019-03-05T04:05:31.427Z,4.56
2019-03-05T04:08:01.722Z,4.50
2019-03-05T04:10:31.917Z,4.58
2019-03-05T04:13:02.215Z,4.78
2019-03-05T04:15:32.825Z,4.78
2019-03-05T04:18:03.002Z,4.89
2019-03-05T04:20:41.786Z,4.92
2019-03-05T04:23:11.956Z,4.84
2019-03-05T04:25:42.264Z,4.81
2019-03-05T04:28:12.470Z,4.76
2019-03-05T04:30:42.836Z,4.64
2019-03-05T04:33:13.132Z,4.78
2019-03-05T04:35:43.581Z,4.71
2019-03-05T04:38:13.965Z,4.60
2019-03-05T04:40:44.287Z,4.60
2019-03-05T04:43:14.675Z,4.47
2019-03-05T04:46:09.425Z,4.46
2019-03-05T04:48:39.847Z,4.57
2019-03-05T04:51:17.159Z,4.61
2019-03-05T04:53:47.548Z,4.57
2019-03-05T04:56:17.969Z,4.66
2019-03-05T04:58:48.259Z,4.63
2019-03-05T05:01:18.411Z,4.71
2019-03-05T05:03:48.767Z,4.55
2019-03-05T05:06:19.215Z,4.37
2019-03-05T05:08:49.554Z,4.56
2019-03-05T05:11:19.459Z,4.51
2019-03-05T05:13:49.811Z,4.52
2019-03-05T05:16:20.070Z,4.54
2019-03-05T05:18:50.565Z,4.47
2019-03-05T05:21:20.825Z,4.75
2019-03-05T05:23:51.250Z,4.81
2019-03-05T05:26:21.672Z,4.88
2019-03-05T05:28:52.118Z,4.96
2019-03-05T05:31:22.153Z,5.00
2019-03-05T05:33:52.538Z,4.95
2019-03-05T05:36:22.975Z,5.15
2019-03-05T05:38:53.199Z,5.22
2019-03-05T05:41:22.917Z,5.17
2019-03-05T05:43:53.238Z,5.35
2019-03-05T05:46:23.678Z,5.35
2019-03-05T05:48:53.739Z,5.42
2019-03-05T05:51:23.773Z,5.21
2019-03-05T05:53:54.098Z,5.49
2019-03-05T05:56:24.248Z,5.35
2019-03-05T05:58:54.889Z,5.47
2019-03-05T06:01:25.060Z,5.59
2019-03-05T06:03:55.362Z,5.68
2019-03-05T06:06:25.639Z,5.76
2019-03-05T06:08:55.870Z,5.79
2019-03-05T06:11:26.482Z,5.87
2019-03-05T06:13:56.721Z,5.84
2019-03-05T06:16:26.757Z,5.76
2019-03-05T06:18:57.106Z,5.86
2019-03-05T06:21:27.622Z,6.05
2019-03-05T06:23:57.930Z,6.15
2019-03-05T06:26:28.405Z,6.19
2019-03-05T06:28:58.970Z,6.21
2019-03-05T06:31:29.575Z,6.40
2019-03-05T06:33:59.638Z,6.57
2019-03-05T06:36:45.039Z,6.74
2019-03-05T06:39:15.078Z,6.93
2019-03-05T06:41:45.398Z,7.16
2019-03-05T06:44:15.834Z,7.30
2019-03-05T06:46:46.138Z,7.51
2019-03-05T06:49:16.464Z,7.85
2019-03-05T06:51:46.815Z,8.02
2019-03-05T06:54:17.261Z,8.19
2019-03-05T06:56:47.797Z,8.36
2019-03-05T06:59:18.095Z,8.54
2019-03-05T07:01:48.609Z,8.69
2019-03-05T07:04:19.076Z,8.87
2019-03-05T07:06:59.278Z,8.99
2019-03-05T07:10:04.381Z,9.24
2019-03-05T07:12:56.526Z,9.60
2019-03-05T07:15:56.668Z,10.30
2019-03-05T07:18:33.207Z,10.90
2019-03-05T07:21:49.132Z,11.87
2019-03-05T07:24:41.817Z,13.15
2019-03-05T07:27:12.418Z,14.66
2019-03-05T07:29:43.152Z,15.60
2019-03-05T07:32:13.415Z,16.43
2019-03-05T07:34:46.067Z,16.58
2019-03-05T07:37:16.326Z,16.90
2019-03-05T07:39:46.769Z,17.52
2019-03-05T07:42:17.337Z,17.86
2019-03-05T07:44:47.579Z,18.26
2019-03-05T07:47:17.444Z,18.67
2019-03-05T07:49:47.385Z,18.98
2019-03-05T07:52:17.564Z,19.52
2019-03-05T07:54:47.591Z,19.47
2019-03-05T07:57:17.927Z,19.55
2019-03-05T07:59:48.329Z,19.69
2019-03-05T08:02:18.235Z,19.70
2019-03-05T08:04:48.190Z,19.97
2019-03-05T08:07:18.647Z,19.97
2019-03-05T08:09:49.077Z,20.47
2019-03-05T08:13:02.352Z,20.60
2019-03-05T08:16:02.339Z,20.94
2019-03-05T08:18:28.800Z,21.04
2019-03-05T08:20:58.771Z,21.06
2019-03-05T08:23:28.742Z,21.06
2019-03-05T08:25:58.915Z,20.83
2019-03-05T08:28:29.184Z,20.74
2019-03-05T08:30:59.094Z,20.55
2019-03-05T08:33:29.517Z,20.28
2019-03-05T08:35:59.711Z,19.96
2019-03-05T08:38:29.875Z,19.33
2019-03-05T08:40:59.979Z,18.89
2019-03-05T08:43:30.403Z,18.85
2019-03-05T08:46:00.824Z,19.21
2019-03-05T08:48:30.758Z,19.65
2019-03-05T08:51:00.660Z,20.00
2019-03-05T08:53:31.173Z,20.51
2019-03-05T08:56:01.530Z,20.80
2019-03-05T08:58:31.714Z,21.45
2019-03-05T09:01:01.837Z,21.86
2019-03-05T09:03:32.274Z,22.28
2019-03-05T09:06:02.754Z,22.67
2019-03-05T09:08:33.111Z,23.47
2019-03-05T09:11:02.817Z,24.14
2019-03-05T09:13:33.324Z,24.71
2019-03-05T09:16:03.683Z,25.34
2019-03-05T09:18:33.651Z,26.45
2019-03-05T09:21:03.890Z,27.31
2019-03-05T09:23:34.411Z,28.08
2019-03-05T09:26:04.757Z,28.90
2019-03-05T09:28:34.632Z,28.82
2019-03-05T09:31:04.844Z,27.52
2019-03-05T09:33:35.197Z,27.13
2019-03-05T09:36:05.852Z,26.98
2019-03-05T09:38:36.122Z,27.45
2019-03-05T09:41:05.799Z,27.92
2019-03-05T09:43:36.088Z,28.37
2019-03-05T09:46:06.552Z,28.72
2019-03-05T09:48:36.875Z,29.47
2019-03-05T09:51:07.239Z,30.14
2019-03-05T09:53:37.410Z,30.71
2019-03-05T09:56:07.510Z,31.50
2019-03-05T09:58:37.890Z,32.13
2019-03-05T10:01:08.493Z,33.18
2019-03-05T10:03:38.181Z,33.27
2019-03-05T10:06:08.268Z,33.30
2019-03-05T10:08:38.435Z,33.98
2019-03-05T10:11:08.686Z,35.29
2019-03-05T10:13:38.915Z,36.90
2019-03-05T10:16:09.490Z,37.88
2019-03-05T10:18:40.118Z,37.84
2019-03-05T10:21:11.947Z,38.18
2019-03-05T10:23:42.397Z,38.02
2019-03-05T10:26:13.035Z,38.46
2019-03-05T10:28:43.629Z,38.72
2019-03-05T10:31:14.001Z,39.18
2019-03-05T10:33:44.550Z,39.58
2019-03-05T10:36:14.896Z,39.49
2019-03-05T10:38:56.584Z,39.18
2019-03-05T10:41:26.309Z,39.27
2019-03-05T10:43:56.622Z,39.93
2019-03-05T10:46:27.203Z,40.15
2019-03-05T10:48:57.594Z,40.67
2019-03-05T10:51:28.656Z,41.30
2019-03-05T10:54:02.312Z,41.25
2019-03-05T10:56:32.466Z,41.94
2019-03-05T10:59:02.342Z,42.44
2019-03-05T11:01:32.305Z,41.58
2019-03-05T11:04:02.948Z,40.51
2019-03-05T11:06:33.549Z,39.32
2019-03-05T11:09:04.429Z,38.35
2019-03-05T11:11:34.608Z,38.20
2019-03-05T11:14:04.970Z,38.25
2019-03-05T11:16:35.182Z,38.32
2019-03-05T11:19:06.199Z,37.70
2019-03-05T11:21:36.609Z,36.14
2019-03-05T11:24:07.551Z,36.36
2019-03-05T11:26:37.850Z,36.83
2019-03-05T11:29:08.327Z,36.85
2019-03-05T11:31:38.625Z,35.53
2019-03-05T11:34:09.275Z,35.16
2019-03-05T11:36:39.421Z,34.69
2019-03-05T11:39:09.938Z,34.19
2019-03-05T11:41:40.249Z,33.72
2019-03-05T11:44:10.560Z,33.63
2019-03-05T11:46:40.807Z,33.09
2019-03-05T11:49:11.285Z,32.38
2019-03-05T11:51:41.787Z,32.19
2019-03-05T11:54:12.164Z,32.53
2019-03-05T11:56:42.577Z,33.59
2019-03-05T11:59:12.861Z,34.76
2019-03-05T12:01:46.189Z,35.42
2019-03-05T12:04:16.512Z,36.68
2019-03-05T12:06:46.893Z,38.15
2019-03-05T12:09:17.341Z,39.39
2019-03-05T12:11:47.926Z,39.04
2019-03-05T12:14:18.513Z,36.91
2019-03-05T12:16:49.007Z,36.92
2019-03-05T12:19:19.384Z,37.00
2019-03-05T12:21:49.706Z,37.69
2019-03-05T12:24:23.913Z,38.74
2019-03-05T12:26:51.493Z,39.38
2019-03-05T12:29:21.652Z,38.82
2019-03-05T12:31:51.969Z,38.37
2019-03-05T12:34:22.358Z,38.29
2019-03-05T12:36:52.688Z,37.69
2019-03-05T12:39:23.745Z,37.96
2019-03-05T12:41:54.022Z,38.66
2019-03-05T12:44:24.522Z,37.18
2019-03-05T12:46:55.076Z,35.87
2019-03-05T12:49:24.901Z,35.98
2019-03-05T12:51:55.127Z,33.99
2019-03-05T12:54:25.607Z,33.57
2019-03-05T12:56:55.500Z,33.96
2019-03-05T12:59:25.636Z,34.66
2019-03-05T13:01:55.725Z,34.66
2019-03-05T13:04:26.047Z,34.81
2019-03-05T13:06:56.510Z,33.85
2019-03-05T13:09:26.704Z,34.17
2019-03-05T13:11:56.933Z,33.72
2019-03-05T13:14:26.943Z,33.29
2019-03-05T13:16:57.126Z,33.89
2019-03-05T13:19:27.110Z,34.42
2019-03-05T13:21:57.458Z,34.58
2019-03-05T13:24:27.754Z,33.91
2019-03-05T13:26:57.839Z,33.39
2019-03-05T13:29:28.063Z,32.69
2019-03-05T13:31:57.869Z,31.71
2019-03-05T13:34:28.218Z,30.64
2019-03-05T13:37:00.796Z,28.55
2019-03-05T13:39:30.642Z,27.40
2019-03-05T13:42:01.165Z,26.48
2019-03-05T13:44:35.713Z,25.45
2019-03-05T13:47:08.538Z,25.15
2019-03-05T13:49:58.903Z,25.12
2019-03-05T13:52:59.972Z,25.49
2019-03-05T13:56:12.043Z,25.46
2019-03-05T13:59:11.646Z,25.33
2019-03-05T14:01:42.483Z,25.24
2019-03-05T14:04:16.951Z,25.42
2019-03-05T14:07:22.510Z,25.22
2019-03-05T14:09:53.749Z,25.30
2019-03-05T14:12:24.073Z,25.25
2019-03-05T14:14:54.498Z,25.20
2019-03-05T14:17:30.140Z,25.16
2019-03-05T14:20:00.549Z,24.70
2019-03-05T14:22:31.032Z,24.82
2019-03-05T14:25:02.938Z,24.77
2019-03-05T14:27:33.826Z,24.88
2019-03-05T14:30:05.100Z,24.85
2019-03-05T14:32:35.549Z,24.61
2019-03-05T14:35:10.798Z,24.52
2019-03-05T14:37:41.674Z,24.38
2019-03-05T14:40:23.990Z,24.18
2019-03-05T14:42:47.941Z,23.88
2019-03-05T14:45:22.202Z,23.68
2019-03-05T14:47:54.046Z,23.48
2019-03-05T14:50:24.742Z,23.17
2019-03-05T14:52:55.230Z,23.00
2019-03-05T14:55:29.996Z,22.90
2019-03-05T14:58:00.565Z,22.75
2019-03-05T15:00:30.911Z,22.56
2019-03-05T15:03:01.668Z,22.38
2019-03-05T15:05:32.172Z,22.19
2019-03-05T15:08:02.726Z,22.08
2019-03-05T15:10:35.919Z,21.82
2019-03-05T15:13:15.259Z,21.74
2019-03-05T15:15:38.767Z,21.67
2019-03-05T15:18:09.450Z,21.66
2019-03-05T15:20:40.001Z,21.53
2019-03-05T15:23:10.711Z,21.40
2019-03-05T15:25:41.401Z,21.23
2019-03-05T15:28:11.754Z,21.19
2019-03-05T15:30:42.294Z,21.10
2019-03-05T15:33:12.986Z,20.99
2019-03-05T15:35:43.554Z,20.79
2019-03-05T15:38:16.174Z,20.60
2019-03-05T15:40:46.764Z,20.41
2019-03-05T15:43:17.493Z,20.24
2019-03-05T15:45:48.123Z,20.10
2019-03-05T15:48:18.568Z,19.95
2019-03-05T15:50:49.272Z,19.82
2019-03-05T15:53:19.915Z,19.74
2019-03-05T15:55:50.331Z,19.53
2019-03-05T15:58:20.880Z,19.36
2019-03-05T16:00:51.903Z,19.25
2019-03-05T16:03:22.331Z,19.04
2019-03-05T16:05:53.832Z,18.87
2019-03-05T16:08:26.189Z,18.75
2019-03-05T16:10:58.671Z,18.63
2019-03-05T16:13:29.175Z,18.60
2019-03-05T16:15:59.587Z,18.44
2019-03-05T16:18:30.291Z,18.31
2019-03-05T16:21:02.588Z,18.24
2019-03-05T16:23:34.037Z,18.28
2019-03-05T16:26:04.559Z,18.19
2019-03-05T16:28:35.022Z,18.16
2019-03-05T16:31:27.515Z,18.03
2019-03-05T16:34:14.281Z,17.98
2019-03-05T16:37:21.187Z,17.94
2019-03-05T16:40:19.273Z,17.86
2019-03-05T16:43:07.611Z,17.67
2019-03-05T16:45:55.775Z,17.53
2019-03-05T16:48:45.550Z,17.42
2019-03-05T16:51:37.502Z,17.34
2019-03-05T16:54:26.959Z,17.30
2019-03-05T16:57:22.378Z,17.34
2019-03-05T17:00:10.463Z,17.26
2019-03-05T17:02:58.761Z,17.17
2019-03-05T17:05:48.018Z,17.10
2019-03-05T17:08:35.534Z,17.07
2019-03-05T17:11:28.307Z,16.98
2019-03-05T17:13:58.851Z,16.93
2019-03-05T17:16:29.437Z,16.87
2019-03-05T17:18:59.898Z,16.93
2019-03-05T17:21:30.409Z,17.05
2019-03-05T17:24:01.668Z,17.02
2019-03-05T17:26:33.716Z,17.10
2019-03-05T17:29:04.852Z,17.06
2019-03-05T17:31:35.366Z,17.14
2019-03-05T17:34:05.950Z,17.14
2019-03-05T17:36:36.424Z,17.16
2019-03-05T17:39:11.377Z,17.24
2019-03-05T17:41:44.387Z,17.34
2019-03-05T17:44:15.261Z,17.30
2019-03-05T17:46:46.565Z,17.36
2019-03-05T17:49:17.087Z,17.27
2019-03-05T17:51:49.385Z,17.31
2019-03-05T17:54:21.353Z,17.23
2019-03-05T17:56:52.097Z,17.10
2019-03-05T17:59:24.373Z,16.98
2019-03-05T18:01:54.988Z,16.88
2019-03-05T18:04:25.816Z,16.81
2019-03-05T18:06:56.514Z,16.74
2019-03-05T18:09:28.373Z,16.70
2019-03-05T18:12:01.530Z,16.69
2019-03-05T18:14:33.092Z,16.62
2019-03-05T18:17:03.634Z,16.51
2019-03-05T18:19:34.443Z,16.45
2019-03-05T18:22:05.289Z,16.39
2019-03-05T18:24:36.740Z,16.39
2019-03-05T18:27:07.482Z,16.39
2019-03-05T18:29:38.733Z,16.43
2019-03-05T18:32:12.356Z,16.44
2019-03-05T18:34:43.045Z,16.49
2019-03-05T18:37:13.464Z,16.50
2019-03-05T18:39:46.005Z,16.55
2019-03-05T18:42:16.796Z,16.51
2019-03-05T18:44:48.815Z,16.53
2019-03-05T18:47:19.615Z,16.59
2019-03-05T18:49:50.271Z,16.62
2019-03-05T18:52:21.003Z,16.61
2019-03-05T18:54:52.964Z,16.61
2019-03-05T18:57:23.797Z,16.53
2019-03-05T18:59:54.443Z,16.39
2019-03-05T19:02:25.179Z,16.34
2019-03-05T19:04:55.970Z,16.29
2019-03-05T19:07:26.798Z,16.26
2019-03-05T19:09:57.222Z,16.41
2019-03-05T19:12:30.314Z,16.35
2019-03-05T19:15:04.138Z,16.23
2019-03-05T19:17:37.488Z,16.15
2019-03-05T19:20:11.743Z,16.05
2019-03-05T19:22:43.391Z,15.95
2019-03-05T19:25:20.441Z,15.89
2019-03-05T19:27:53.452Z,15.84
2019-03-05T19:30:28.813Z,15.80
2019-03-05T19:32:59.526Z,15.74
2019-03-05T19:35:29.999Z,15.79
2019-03-05T19:38:00.610Z,15.78
2019-03-05T19:40:33.876Z,15.77
2019-03-05T19:43:06.872Z,15.74
2019-03-05T19:45:37.475Z,15.74
2019-03-05T19:48:07.998Z,15.73
2019-03-05T19:50:38.543Z,15.73
2019-03-05T19:53:09.223Z,15.74
2019-03-05T19:55:39.995Z,15.87
2019-03-05T19:58:11.430Z,15.90
2019-03-05T20:01:12.482Z,15.76
2019-03-05T20:03:43.263Z,15.70
2019-03-05T20:06:14.993Z,15.62
2019-03-05T20:08:47.925Z,15.75
2019-03-05T20:11:18.609Z,15.62
2019-03-05T20:13:49.150Z,15.56
2019-03-05T20:16:20.797Z,15.55
2019-03-05T20:18:51.289Z,15.51
2019-03-05T20:21:21.848Z,15.35
2019-03-05T20:23:52.595Z,15.43
2019-03-05T20:26:23.140Z,15.44
2019-03-05T20:28:53.724Z,15.29
2019-03-05T20:31:27.258Z,15.30
2019-03-05T20:33:59.804Z,15.23
2019-03-05T20:36:30.661Z,15.17
2019-03-05T20:39:01.375Z,15.11
2019-03-05T20:41:31.952Z,15.02
2019-03-05T20:44:04.912Z,15.10
2019-03-05T20:46:35.470Z,15.17
2019-03-05T20:49:06.303Z,15.03
2019-03-05T20:51:36.945Z,15.00
2019-03-05T20:54:07.605Z,15.13
2019-03-05T20:56:40.659Z,15.18
2019-03-05T20:59:11.130Z,15.08
2019-03-05T21:01:41.934Z,15.17
2019-03-05T21:04:12.606Z,15.10
2019-03-05T21:06:43.425Z,15.02
2019-03-05T21:09:24.852Z,14.93
2019-03-05T21:11:55.667Z,14.77
2019-03-05T21:14:27.470Z,14.82
2019-03-05T21:16:58.398Z,14.78
2019-03-05T21:19:28.966Z,14.67
2019-03-05T21:21:59.240Z,14.52
2019-03-05T21:24:29.961Z,14.43
2019-03-05T21:27:02.018Z,14.33
2019-03-05T21:29:34.057Z,14.31
2019-03-05T21:32:04.892Z,14.34
2019-03-05T21:34:35.919Z,14.21
2019-03-05T21:37:06.746Z,14.02
2019-03-05T21:39:37.350Z,14.05
2019-03-05T21:42:09.784Z,14.01
2019-03-05T21:44:40.752Z,13.92
2019-03-05T21:47:11.494Z,13.85
2019-03-05T21:49:42.234Z,13.85
2019-03-05T21:52:12.653Z,13.96
2019-03-05T21:54:43.153Z,13.99
2019-03-05T21:57:13.936Z,13.89
2019-03-05T21:59:44.625Z,13.93
2019-03-05T22:02:15.426Z,14.00
2019-03-05T22:04:45.855Z,14.03
2019-03-05T22:07:16.584Z,14.17
2019-03-05T22:09:48.004Z,14.29
2019-03-05T22:12:18.408Z,14.36
2019-03-05T22:14:48.911Z,14.41
2019-03-05T22:17:19.530Z,14.47
2019-03-05T22:19:50.049Z,14.54
2019-03-05T22:22:20.525Z,14.66
2019-03-05T22:24:52.368Z,14.74
2019-03-05T22:27:25.194Z,14.72
2019-03-05T22:29:55.664Z,14.76
2019-03-05T22:32:26.426Z,14.72
2019-03-05T22:35:00.303Z,14.65
2019-03-05T22:37:30.856Z,14.71
2019-03-05T22:40:01.458Z,14.51
2019-03-05T22:42:32.171Z,14.36
2019-03-05T22:45:02.923Z,14.32
2019-03-05T22:47:33.662Z,14.36
2019-03-05T22:50:04.614Z,14.35
2019-03-05T22:52:36.458Z,14.30
2019-03-05T22:55:08.612Z,14.21
2019-03-05T22:57:42.449Z,14.09
2019-03-05T23:00:19.901Z,14.05
2019-03-05T23:02:51.019Z,14.00
2019-03-05T23:05:21.633Z,13.98
2019-03-05T23:07:52.339Z,14.01
2019-03-05T23:10:23.327Z,14.07
2019-03-05T23:12:55.664Z,14.11
2019-03-05T23:15:26.654Z,14.08
2019-03-05T23:17:57.278Z,14.12
2019-03-05T23:20:30.000Z,14.02
2019-03-05T23:23:00.504Z,13.97
2019-03-05T23:25:31.318Z,14.03
2019-03-05T23:28:01.781Z,13.92
2019-03-05T23:30:32.544Z,13.82
2019-03-05T23:33:03.028Z,13.81
2019-03-05T23:35:33.598Z,13.77
2019-03-05T23:38:06.323Z,13.66
2019-03-05T23:40:36.870Z,13.55
2019-03-05T23:43:07.797Z,13.48
2019-03-05T23:45:39.692Z,13.34
2019-03-05T23:48:10.575Z,13.18
2019-03-05T23:50:42.735Z,12.93
2019-03-05T23:53:13.081Z,12.72
2019-03-05T23:55:43.944Z,12.61
2019-03-05T23:58:14.853Z,12.49
